Time;durP1;ratioP1;P1;durP2;ratioP2;P2;SDS_P1;SDS_P2;PMS_P1;PMS_P2;Temp;Humidity;BMP_temperature;BMP_pressure;BME280_temperature;BME280_humidity;BME280_pressure;Samples;Min_cycle;Max_cycle;Signal;HPM_P1;HPM_P2
2022/06/26 00:01:22;;;;;;;7.72;5.70;;;19.60;99.90;;;;;;4961486;28;20047;-43
2022/06/26 00:03:49;;;;;;;9.30;5.60;;;19.60;99.90;;;;;;4975644;28;20499;-42
2022/06/26 00:06:15;;;;;;;10.80;6.80;;;19.60;99.90;;;;;;4977100;28;20082;-43
2022/06/26 00:08:42;;;;;;;7.22;5.30;;;19.60;99.90;;;;;;4959075;28;20078;-43
2022/06/26 00:11:10;;;;;;;8.30;6.30;;;19.50;99.90;;;;;;4984071;28;20090;-42
2022/06/26 00:13:37;;;;;;;9.57;6.35;;;19.50;99.90;;;;;;4975496;28;20497;-42
2022/06/26 00:16:04;;;;;;;7.03;5.68;;;19.50;99.90;;;;;;4975700;28;20096;-42
2022/06/26 00:18:31;;;;;;;10.63;6.10;;;19.50;99.90;;;;;;4975970;28;20081;-42
2022/06/26 00:20:58;;;;;;;9.23;7.20;;;19.40;99.90;;;;;;4976089;28;20086;-43
2022/06/26 00:23:24;;;;;;;9.50;6.55;;;19.40;99.90;;;;;;4959455;28;20078;-42
2022/06/26 00:25:51;;;;;;;9.82;5.95;;;19.40;99.90;;;;;;4976408;28;20082;-43
2022/06/26 00:28:19;;;;;;;8.80;6.57;;;19.40;99.90;;;;;;4975308;28;20121;-43
2022/06/26 00:30:46;;;;;;;11.57;7.10;;;19.40;99.90;;;;;;4976197;28;20474;-44
2022/06/26 00:33:13;;;;;;;9.23;6.25;;;19.40;99.90;;;;;;4958039;28;20475;-44
2022/06/26 00:35:40;;;;;;;12.27;7.40;;;19.40;99.90;;;;;;4977515;28;20078;-43
2022/06/26 00:38:07;;;;;;;8.43;6.53;;;19.40;99.90;;;;;;4975131;28;20101;-43
2022/06/26 00:40:33;;;;;;;7.93;6.72;;;19.30;99.90;;;;;;4975227;28;20078;-43
2022/06/26 00:43:00;;;;;;;8.98;5.85;;;19.30;99.90;;;;;;4979156;28;20047;-43
2022/06/26 00:45:28;;;;;;;11.45;7.60;;;19.30;99.90;;;;;;4974326;28;20051;-43
2022/06/26 00:47:55;;;;;;;7.82;5.45;;;19.40;99.90;;;;;;4976051;28;20074;-43
2022/06/26 00:50:22;;;;;;;8.70;6.82;;;19.40;99.90;;;;;;4979387;28;20054;-42
2022/06/26 00:52:50;;;;;;;14.18;8.23;;;19.40;99.90;;;;;;4977008;28;20046;-42
2022/06/26 00:55:17;;;;;;;14.07;9.50;;;19.40;99.90;;;;;;4975488;28;20047;-43
2022/06/26 00:57:44;;;;;;;13.55;10.77;;;19.30;99.90;;;;;;4974330;28;20046;-43
2022/06/26 01:00:11;;;;;;;17.27;11.77;;;19.30;99.90;;;;;;4976851;28;20086;-43
2022/06/26 01:02:40;;;;;;;13.65;10.18;;;19.20;99.90;;;;;;4987023;28;20065;-43
2022/06/26 01:05:08;;;;;;;13.27;9.80;;;19.20;99.90;;;;;;4976280;28;20110;-43
2022/06/26 01:07:35;;;;;;;16.23;11.27;;;19.30;99.90;;;;;;4972603;28;20047;-42
2022/06/26 01:10:02;;;;;;;14.30;11.70;;;19.40;99.90;;;;;;4973659;28;20126;-43
2022/06/26 01:12:28;;;;;;;17.27;11.20;;;19.40;99.90;;;;;;4975242;28;20090;-42
2022/06/26 01:14:55;;;;;;;14.30;10.85;;;19.40;99.90;;;;;;4962441;28;20104;-44
2022/06/26 01:17:22;;;;;;;13.02;11.07;;;19.40;99.90;;;;;;4977484;28;20046;-43
2022/06/26 01:19:50;;;;;;;13.27;10.20;;;19.40;99.90;;;;;;4976907;28;20129;-43
2022/06/26 01:22:17;;;;;;;16.05;10.77;;;19.40;99.90;;;;;;4959936;28;20121;-43
2022/06/26 01:24:46;;;;;;;16.83;10.88;;;19.40;99.90;;;;;;4973548;28;20046;-43
2022/06/26 01:27:13;;;;;;;18.33;11.50;;;19.40;99.90;;;;;;4966291;28;20109;-43
2022/06/26 01:29:40;;;;;;;22.90;10.73;;;19.40;99.90;;;;;;4973628;28;20045;-44
2022/06/26 01:32:07;;;;;;;11.40;10.13;;;19.40;99.90;;;;;;4973487;28;20490;-43
2022/06/26 01:34:34;;;;;;;10.07;8.95;;;19.40;99.90;;;;;;4973490;28;20130;-43
2022/06/26 01:37:01;;;;;;;13.82;9.55;;;19.40;99.90;;;;;;4974117;28;20054;-44
2022/06/26 01:39:28;;;;;;;16.13;10.23;;;19.40;99.90;;;;;;4976714;28;20078;-44
2022/06/26 01:41:56;;;;;;;12.98;8.88;;;19.40;99.90;;;;;;4956828;28;20146;-43
2022/06/26 01:44:23;;;;;;;10.98;7.85;;;19.40;99.90;;;;;;4956252;28;20153;-43
2022/06/26 01:46:50;;;;;;;10.88;7.65;;;19.40;99.90;;;;;;4977526;28;20474;-43
2022/06/26 01:49:17;;;;;;;17.02;10.05;;;19.40;99.90;;;;;;4976303;28;20074;-44
2022/06/26 01:51:43;;;;;;;12.45;7.55;;;19.40;99.90;;;;;;4987345;28;20046;-44
2022/06/26 01:54:10;;;;;;;16.73;9.57;;;19.30;99.90;;;;;;4979726;28;20117;-43
2022/06/26 01:56:37;;;;;;;12.60;9.00;;;19.30;99.90;;;;;;4956254;28;20069;-44
2022/06/26 01:59:05;;;;;;;14.52;8.80;;;19.40;99.90;;;;;;4976246;28;20035;-42
2022/06/26 02:01:33;;;;;;;17.10;10.10;;;19.40;99.90;;;;;;4973045;28;20074;-43
2022/06/26 02:04:00;;;;;;;18.13;9.23;;;19.40;99.90;;;;;;4936270;28;1077542;-44
2022/06/26 02:06:27;;;;;;;16.30;8.90;;;19.30;99.90;;;;;;4967020;28;20075;-45
2022/06/26 02:08:54;;;;;;;17.88;9.32;;;19.30;99.90;;;;;;4970935;28;20046;-44
2022/06/26 02:14:06;;;;;;;14.57;10.30;;;19.30;99.90;;;;;;4961290;28;20051;-44
2022/06/26 02:16:33;;;;;;;13.27;8.40;;;19.30;99.90;;;;;;4973849;28;20553;-44
2022/06/26 02:19:00;;;;;;;13.98;9.15;;;19.30;99.90;;;;;;4957483;28;20086;-45
2022/06/26 02:21:28;;;;;;;13.00;7.72;;;19.30;99.90;;;;;;4979584;28;20109;-44
2022/06/26 02:23:55;;;;;;;18.85;11.07;;;19.30;99.90;;;;;;4976855;28;20044;-43
2022/06/26 02:26:22;;;;;;;14.05;8.00;;;19.30;99.90;;;;;;4972592;28;20046;-44
2022/06/26 02:28:49;;;;;;;11.23;6.88;;;19.30;99.90;;;;;;4969135;28;20043;-43
2022/06/26 02:31:17;;;;;;;12.38;7.90;;;19.30;99.90;;;;;;4973268;28;20042;-44
2022/06/26 02:33:44;;;;;;;14.95;9.50;;;19.20;99.90;;;;;;4980028;28;20046;-43
2022/06/26 02:36:11;;;;;;;17.55;10.30;;;19.20;99.90;;;;;;4972222;28;20086;-44
2022/06/26 02:38:38;;;;;;;10.75;6.53;;;19.10;99.90;;;;;;4973285;28;20050;-44
2022/06/26 02:41:05;;;;;;;12.60;8.65;;;19.10;99.90;;;;;;4973894;28;20049;-45
2022/06/26 02:43:32;;;;;;;10.70;7.15;;;19.10;99.90;;;;;;4972629;28;20109;-45
2022/06/26 02:45:59;;;;;;;11.48;6.97;;;19.10;99.90;;;;;;4973289;28;20113;-45
2022/06/26 02:48:27;;;;;;;10.00;7.30;;;19.10;99.90;;;;;;4973496;28;20042;-44
2022/06/26 02:50:54;;;;;;;11.10;7.55;;;19.00;99.90;;;;;;4960073;28;20509;-44
2022/06/26 02:53:20;;;;;;;9.90;6.70;;;19.10;99.90;;;;;;4977343;28;20051;-44
2022/06/26 02:55:47;;;;;;;14.30;8.10;;;19.00;99.90;;;;;;4973190;28;20129;-44
2022/06/26 02:58:14;;;;;;;9.52;7.20;;;19.00;99.90;;;;;;4977106;28;20078;-44
2022/06/26 03:00:41;;;;;;;9.27;6.60;;;19.00;99.90;;;;;;4972608;28;20476;-43
2022/06/26 03:03:08;;;;;;;11.15;6.68;;;19.00;99.90;;;;;;4977495;28;20097;-42
2022/06/26 03:05:36;;;;;;;7.60;5.32;;;19.00;99.90;;;;;;4974497;28;20050;-43
2022/06/26 03:08:03;;;;;;;12.85;6.70;;;19.00;99.90;;;;;;4973314;28;20360;-43
2022/06/26 03:10:30;;;;;;;9.02;6.50;;;18.90;99.90;;;;;;4977403;28;20071;-43
2022/06/26 03:12:57;;;;;;;10.50;7.50;;;18.90;99.90;;;;;;4973849;28;20487;-43
2022/06/26 03:15:23;;;;;;;12.82;6.88;;;18.90;99.90;;;;;;4955874;28;20109;-43
2022/06/26 03:17:50;;;;;;;12.75;8.23;;;18.90;99.90;;;;;;4973848;28;20155;-43
2022/06/26 03:20:18;;;;;;;8.35;5.07;;;18.80;99.90;;;;;;4955583;28;20089;-43
2022/06/26 03:22:46;;;;;;;10.57;6.20;;;18.80;99.90;;;;;;4970803;28;20063;-43
2022/06/26 03:25:13;;;;;;;10.13;5.80;;;18.80;99.90;;;;;;4972351;28;20071;-43
2022/06/26 03:27:40;;;;;;;7.05;4.43;;;18.80;99.90;;;;;;4979800;28;20055;-43
2022/06/26 03:30:08;;;;;;;6.82;4.78;;;18.80;99.90;;;;;;4977224;28;20121;-43
2022/06/26 03:32:35;;;;;;;8.27;5.68;;;18.70;99.90;;;;;;4977555;28;20094;-42
2022/06/26 03:35:02;;;;;;;8.63;5.68;;;18.70;99.90;;;;;;4976573;28;20447;-43
2022/06/26 03:37:29;;;;;;;6.47;5.18;;;18.60;99.90;;;;;;4983769;28;20043;-43
2022/06/26 03:39:57;;;;;;;8.23;5.00;;;18.60;99.90;;;;;;4984434;28;20129;-43
2022/06/26 03:42:24;;;;;;;9.13;6.07;;;18.60;99.90;;;;;;4975044;28;20078;-43
2022/06/26 03:44:50;;;;;;;6.25;4.80;;;18.60;99.90;;;;;;4976474;28;20047;-44
2022/06/26 03:47:17;;;;;;;9.90;5.50;;;18.50;99.90;;;;;;4960397;28;20105;-43
2022/06/26 03:49:44;;;;;;;8.02;5.63;;;18.50;99.90;;;;;;4980211;28;20428;-43
2022/06/26 03:52:11;;;;;;;6.22;4.75;;;18.50;99.90;;;;;;4975996;28;20106;-44
2022/06/26 03:54:37;;;;;;;4.93;3.78;;;18.50;99.90;;;;;;4975604;28;20498;-43
2022/06/26 03:57:06;;;;;;;8.90;4.22;;;18.50;99.90;;;;;;4959974;28;20043;-42
2022/06/26 03:59:33;;;;;;;8.02;5.15;;;18.50;99.90;;;;;;4953517;28;20114;-43
2022/06/26 04:02:00;;;;;;;10.02;5.05;;;18.40;99.90;;;;;;4987696;28;20475;-43
2022/06/26 04:04:27;;;;;;;7.03;4.38;;;18.40;99.90;;;;;;4975194;28;20490;-43
2022/06/26 04:06:54;;;;;;;6.38;5.13;;;18.40;99.90;;;;;;4976500;28;20368;-43
2022/06/26 04:09:21;;;;;;;7.53;4.47;;;18.30;99.90;;;;;;4975640;28;20085;-43
2022/06/26 04:11:47;;;;;;;7.38;3.50;;;18.30;99.90;;;;;;4976012;28;20054;-43
2022/06/26 04:14:16;;;;;;;6.13;4.57;;;18.30;99.90;;;;;;4976518;28;20105;-43
2022/06/26 04:16:42;;;;;;;6.05;4.93;;;18.30;99.90;;;;;;4975199;28;20554;-43
2022/06/26 04:19:09;;;;;;;4.82;4.13;;;18.30;99.90;;;;;;4957674;28;20510;-43
2022/06/26 04:21:36;;;;;;;6.05;3.60;;;18.30;99.90;;;;;;4976828;28;20446;-42
2022/06/26 04:24:03;;;;;;;4.22;3.22;;;18.30;99.90;;;;;;4958834;28;20427;-42
2022/06/26 04:26:29;;;;;;;5.13;4.13;;;18.30;99.90;;;;;;4978895;28;20109;-42
2022/06/26 04:28:56;;;;;;;4.20;3.78;;;18.30;99.90;;;;;;4992537;28;20045;-43
2022/06/26 04:31:24;;;;;;;6.18;3.55;;;18.20;99.90;;;;;;4976016;28;20078;-43
2022/06/26 04:33:51;;;;;;;5.72;3.45;;;18.20;99.90;;;;;;4959026;28;20043;-43
2022/06/26 04:36:18;;;;;;;4.65;2.90;;;18.20;99.90;;;;;;4975846;28;20495;-43
2022/06/26 04:38:45;;;;;;;5.40;3.45;;;18.20;99.90;;;;;;4977418;28;20154;-43
2022/06/26 04:43:56;;;;;;;5.18;3.72;;;18.20;99.90;;;;;;4975338;28;20431;-42
2022/06/26 04:46:24;;;;;;;6.30;3.30;;;18.20;99.90;;;;;;4977244;28;20057;-43
2022/06/26 04:48:51;;;;;;;5.63;3.47;;;18.20;99.90;;;;;;4976141;28;20050;-44
2022/06/26 04:51:18;;;;;;;5.97;3.53;;;18.20;99.90;;;;;;4963527;28;20054;-43
2022/06/26 04:53:44;;;;;;;5.35;3.72;;;18.20;99.90;;;;;;4963945;28;20046;-42
2022/06/26 04:56:11;;;;;;;7.82;4.10;;;18.20;99.90;;;;;;4979197;28;20074;-43
2022/06/26 04:58:38;;;;;;;5.68;4.45;;;18.20;99.90;;;;;;4957956;28;20054;-43
2022/06/26 05:01:05;;;;;;;5.63;4.07;;;18.30;99.90;;;;;;4981901;28;20121;-43
2022/06/26 05:03:33;;;;;;;6.15;4.78;;;18.30;99.90;;;;;;4957967;28;20133;-43
2022/06/26 05:06:00;;;;;;;6.43;4.80;;;18.30;99.90;;;;;;4977552;28;20491;-44
2022/06/26 05:08:26;;;;;;;8.70;5.43;;;18.40;99.90;;;;;;4975625;28;20074;-42
2022/06/26 05:10:56;;;;;;;8.85;5.20;;;18.40;99.90;;;;;;4978485;28;20074;-42
2022/06/26 05:13:23;;;;;;;5.95;4.07;;;18.40;99.90;;;;;;4957707;28;20825;-44
2022/06/26 05:15:50;;;;;;;7.03;6.20;;;18.40;99.90;;;;;;4979028;28;20049;-44
2022/06/26 05:18:17;;;;;;;7.65;5.40;;;18.40;99.90;;;;;;4979599;28;20042;-44
2022/06/26 05:20:45;;;;;;;8.35;6.40;;;18.40;99.90;;;;;;4958279;28;20089;-44
2022/06/26 05:23:12;;;;;;;9.20;7.53;;;18.40;99.90;;;;;;4975587;28;20506;-43
2022/06/26 05:25:39;;;;;;;10.00;7.18;;;18.40;99.90;;;;;;4975718;28;20051;-42
2022/06/26 05:28:06;;;;;;;7.68;6.43;;;18.40;99.90;;;;;;4989191;28;20046;-43
2022/06/26 05:30:33;;;;;;;10.45;7.03;;;18.40;99.90;;;;;;4958304;28;20078;-43
2022/06/26 05:33:00;;;;;;;8.10;6.78;;;18.40;99.90;;;;;;4959208;28;20463;-43
2022/06/26 05:35:27;;;;;;;9.43;6.95;;;18.40;99.90;;;;;;4958747;28;20107;-43
2022/06/26 05:37:55;;;;;;;11.85;6.75;;;18.40;99.90;;;;;;4971623;28;20124;-42
2022/06/26 05:40:22;;;;;;;10.02;8.13;;;18.40;99.90;;;;;;4977619;28;20435;-43
2022/06/26 05:42:48;;;;;;;9.27;8.25;;;18.40;99.90;;;;;;4976763;28;20165;-43
2022/06/26 05:45:15;;;;;;;12.50;8.68;;;18.40;99.90;;;;;;4974614;28;20122;-43
2022/06/26 05:47:42;;;;;;;9.77;8.25;;;18.40;99.90;;;;;;4957394;28;20090;-43
2022/06/26 05:50:09;;;;;;;14.98;9.60;;;18.40;99.90;;;;;;4960628;28;20090;-44
2022/06/26 05:52:36;;;;;;;12.35;10.07;;;18.40;99.90;;;;;;4991519;28;20054;-43
2022/06/26 05:55:05;;;;;;;12.13;10.20;;;18.40;99.90;;;;;;4982744;28;20042;-43
2022/06/26 05:57:32;;;;;;;15.63;11.38;;;18.40;99.90;;;;;;4981689;28;20128;-44
2022/06/26 05:59:59;;;;;;;12.52;10.57;;;18.40;99.90;;;;;;4965042;28;20046;-43
2022/06/26 06:02:25;;;;;;;14.32;11.88;;;18.40;99.90;;;;;;4973835;28;20513;-43
2022/06/26 06:04:52;;;;;;;14.10;11.27;;;18.40;99.90;;;;;;4958923;28;20105;-42
2022/06/26 06:07:19;;;;;;;13.40;10.85;;;18.40;99.90;;;;;;4957730;28;20079;-42
2022/06/26 06:09:46;;;;;;;17.17;12.90;;;18.40;99.90;;;;;;4974139;28;20078;-42
2022/06/26 06:12:14;;;;;;;15.18;11.85;;;18.40;99.90;;;;;;4973239;28;20050;-42
2022/06/26 06:14:41;;;;;;;14.02;12.23;;;18.40;99.90;;;;;;4986317;28;20042;-43
2022/06/26 06:19:48;;;;;;;14.77;10.65;;;18.60;99.90;;;;;;4959460;28;20082;-43
2022/06/26 06:22:15;;;;;;;14.30;11.45;;;18.70;99.90;;;;;;4974567;28;20101;-43
2022/06/26 06:24:42;;;;;;;11.73;10.20;;;18.70;99.90;;;;;;4974073;28;20125;-43
2022/06/26 06:27:08;;;;;;;14.25;11.07;;;18.80;99.90;;;;;;4973552;28;20092;-43
2022/06/26 06:29:37;;;;;;;16.10;12.60;;;18.80;99.90;;;;;;4981332;28;20038;-43
2022/06/26 06:32:04;;;;;;;17.27;14.52;;;18.90;99.90;;;;;;4970660;28;20077;-43
2022/06/26 06:34:31;;;;;;;16.98;12.75;;;19.00;99.90;;;;;;4985328;28;20434;-43
2022/06/26 06:36:57;;;;;;;16.73;14.18;;;19.10;99.90;;;;;;4960893;28;20097;-44
2022/06/26 06:39:24;;;;;;;15.63;13.27;;;19.10;99.90;;;;;;4980683;28;20089;-44
2022/06/26 06:41:51;;;;;;;17.52;15.25;;;19.10;99.90;;;;;;4962132;28;20487;-44
2022/06/26 06:44:18;;;;;;;18.02;15.80;;;19.10;99.90;;;;;;4977779;28;20101;-44
2022/06/26 06:46:46;;;;;;;16.85;14.18;;;19.10;99.90;;;;;;4982964;28;20078;-43
2022/06/26 06:49:13;;;;;;;19.85;16.08;;;19.10;99.90;;;;;;4977590;28;20061;-43
2022/06/26 06:51:40;;;;;;;21.77;16.77;;;19.10;99.90;;;;;;4972253;28;20090;-44
2022/06/26 06:54:07;;;;;;;19.23;16.70;;;19.10;99.90;;;;;;4967426;28;20129;-42
2022/06/26 06:56:34;;;;;;;18.65;16.05;;;19.10;99.90;;;;;;4953741;28;20504;-43
2022/06/26 06:59:01;;;;;;;18.63;16.73;;;19.20;99.90;;;;;;4973649;28;20129;-44
2022/06/26 07:01:28;;;;;;;23.60;17.52;;;19.30;99.90;;;;;;4972320;28;20144;-44
2022/06/26 07:03:56;;;;;;;18.15;16.45;;;19.40;99.90;;;;;;4970595;28;20470;-43
2022/06/26 07:06:23;;;;;;;19.13;16.55;;;19.50;99.90;;;;;;4972705;28;20046;-43
2022/06/26 07:08:50;;;;;;;20.13;15.40;;;19.60;99.90;;;;;;4969244;28;20125;-45
2022/06/26 07:11:17;;;;;;;22.10;17.38;;;19.70;99.90;;;;;;4973254;28;20081;-42
2022/06/26 07:13:43;;;;;;;21.40;16.95;;;19.70;99.90;;;;;;4972449;28;20538;-44
2022/06/26 07:16:10;;;;;;;22.90;18.48;;;19.70;99.90;;;;;;4971135;28;20042;-43
2022/06/26 07:18:37;;;;;;;22.90;17.92;;;19.70;99.90;;;;;;4972357;28;20105;-44
2022/06/26 07:21:07;;;;;;;20.33;16.73;;;19.80;99.90;;;;;;4971385;28;20047;-43
2022/06/26 07:23:33;;;;;;;20.20;17.48;;;20.00;99.90;;;;;;4954790;28;20205;-43
2022/06/26 07:26:00;;;;;;;20.42;17.80;;;20.00;99.90;;;;;;4972152;28;20178;-44
2022/06/26 07:28:27;;;;;;;23.90;18.48;;;20.10;99.90;;;;;;4989054;28;20081;-43
2022/06/26 07:30:55;;;;;;;20.40;17.08;;;20.20;99.90;;;;;;4977552;28;20101;-43
2022/06/26 07:36:07;;;;;;;24.05;17.98;;;20.50;99.90;;;;;;4973797;28;20047;-44
2022/06/26 07:38:34;;;;;;;23.40;17.30;;;20.50;99.90;;;;;;4972887;28;20093;-44
2022/06/26 07:41:01;;;;;;;18.58;15.30;;;20.60;99.90;;;;;;4972679;28;20074;-44
2022/06/26 07:43:28;;;;;;;19.98;17.42;;;20.60;99.90;;;;;;4971619;28;20113;-42
2022/06/26 07:45:55;;;;;;;18.70;15.43;;;20.60;99.90;;;;;;4969662;28;20066;-44
2022/06/26 07:48:22;;;;;;;18.52;14.73;;;20.60;99.90;;;;;;4974729;28;20173;-43
2022/06/26 07:50:48;;;;;;;18.30;13.20;;;20.60;99.90;;;;;;4983427;28;20039;-43
2022/06/26 07:53:18;;;;;;;18.25;14.23;;;20.80;99.90;;;;;;4963710;28;20039;-42
2022/06/26 07:55:44;;;;;;;18.60;14.32;;;21.00;99.90;;;;;;4971509;28;20113;-43
2022/06/26 07:58:11;;;;;;;17.58;13.85;;;21.10;99.90;;;;;;4974157;28;20094;-43
2022/06/26 08:00:38;;;;;;;17.67;13.52;;;21.20;99.90;;;;;;4972922;28;20046;-43
2022/06/26 08:03:05;;;;;;;16.63;11.52;;;21.30;99.90;;;;;;4971612;28;20175;-43
2022/06/26 08:05:32;;;;;;;12.43;10.15;;;21.40;99.90;;;;;;4957114;28;20083;-43
2022/06/26 08:07:59;;;;;;;13.40;9.95;;;21.40;99.90;;;;;;4956659;28;20047;-44
2022/06/26 08:10:27;;;;;;;15.07;10.90;;;21.50;99.90;;;;;;4955977;28;20121;-44
2022/06/26 08:12:54;;;;;;;13.20;10.35;;;21.50;99.90;;;;;;4974324;28;20487;-42
2022/06/26 08:15:21;;;;;;;13.13;9.20;;;21.50;99.90;;;;;;4979503;28;20042;-43
2022/06/26 08:17:48;;;;;;;12.07;8.88;;;21.60;99.90;;;;;;4976214;28;20050;-43
2022/06/26 08:20:15;;;;;;;13.15;8.95;;;21.70;99.90;;;;;;4994205;28;20046;-44
2022/06/26 08:22:42;;;;;;;12.20;8.35;;;21.90;99.70;;;;;;4971776;28;20486;-44
2022/06/26 08:25:09;;;;;;;14.52;7.72;;;22.20;99.60;;;;;;4967768;28;20089;-44
2022/06/26 08:27:37;;;;;;;10.75;7.95;;;22.40;98.80;;;;;;4993855;28;20394;-43
2022/06/26 08:30:05;;;;;;;11.63;7.30;;;22.50;97.80;;;;;;4963281;28;20054;-44
2022/06/26 08:32:32;;;;;;;11.43;7.22;;;22.50;97.70;;;;;;4976916;28;20078;-43
2022/06/26 08:34:59;;;;;;;10.43;7.30;;;22.60;97.90;;;;;;4977527;28;20050;-43
2022/06/26 08:37:26;;;;;;;10.10;6.53;;;22.70;96.90;;;;;;4958708;28;20050;-43
2022/06/26 08:39:53;;;;;;;10.48;7.00;;;22.70;97.50;;;;;;4981492;28;20767;-43
2022/06/26 08:42:20;;;;;;;10.95;6.50;;;22.70;96.80;;;;;;4956412;28;20105;-44
2022/06/26 08:44:48;;;;;;;9.10;5.60;;;22.80;97.40;;;;;;4984249;28;20058;-45
2022/06/26 08:47:15;;;;;;;9.18;6.13;;;22.80;96.70;;;;;;4978438;28;20043;-43
2022/06/26 08:49:42;;;;;;;7.63;5.10;;;22.70;96.80;;;;;;4976691;28;20455;-44
2022/06/26 08:52:09;;;;;;;7.35;5.22;;;22.70;96.10;;;;;;4985468;28;20070;-44
2022/06/26 08:54:36;;;;;;;4.90;2.90;;;22.80;96.20;;;;;;4985342;28;20058;-44
2022/06/26 08:57:02;;;;;;;7.93;2.70;;;22.90;95.30;;;;;;4959223;28;20133;-44
2022/06/26 08:59:31;;;;;;;4.82;2.97;;;23.10;94.60;;;;;;4960979;28;20408;-44
2022/06/26 09:01:59;;;;;;;5.38;2.70;;;23.20;94.50;;;;;;4956613;28;20046;-44
2022/06/26 09:04:26;;;;;;;5.95;3.45;;;23.40;94.10;;;;;;4974972;28;20098;-43
2022/06/26 09:06:53;;;;;;;7.25;2.60;;;23.40;92.90;;;;;;4973582;28;20058;-44
2022/06/26 09:09:22;;;;;;;3.88;2.42;;;23.30;93.10;;;;;;4978406;28;20055;-43
2022/06/26 09:11:49;;;;;;;3.83;2.50;;;23.30;93.20;;;;;;4978788;28;20338;-44
2022/06/26 09:14:16;;;;;;;4.18;2.92;;;23.50;93.00;;;;;;4976275;28;20126;-44
2022/06/26 09:16:43;;;;;;;5.53;3.00;;;23.70;92.70;;;;;;4964070;28;20043;-44
2022/06/26 09:19:13;;;;;;;6.68;3.00;;;23.90;92.50;;;;;;4981984;28;20053;-44
2022/06/26 09:21:40;;;;;;;4.47;2.58;;;24.00;91.70;;;;;;4957945;28;20129;-44
2022/06/26 09:24:09;;;;;;;4.72;2.35;;;24.20;91.60;;;;;;4973684;28;20042;-44
2022/06/26 09:26:36;;;;;;;4.53;2.63;;;24.20;91.30;;;;;;4957103;28;20121;-43
2022/06/26 09:29:09;;;;;;;6.55;2.47;;;24.30;91.20;;;;;;4975329;28;20066;-43
2022/06/26 09:31:37;;;;;;;3.40;2.40;;;24.30;90.50;;;;;;4981016;28;20046;-43
2022/06/26 09:34:04;;;;;;;4.63;2.35;;;24.30;89.50;;;;;;4958023;28;20085;-43
2022/06/26 09:36:32;;;;;;;3.85;2.30;;;24.30;89.60;;;;;;4974873;28;20062;-44
2022/06/26 09:38:59;;;;;;;4.20;2.20;;;24.40;89.10;;;;;;4975094;28;20286;-44
2022/06/26 09:41:29;;;;;;;2.42;2.08;;;24.40;88.30;;;;;;4974255;28;20098;-44
2022/06/26 09:43:57;;;;;;;5.35;2.40;;;24.50;87.80;;;;;;4973277;28;20050;-43
2022/06/26 09:46:29;;;;;;;4.13;2.08;;;24.50;87.50;;;;;;4981096;28;20046;-43
2022/06/26 09:48:57;;;;;;;3.55;2.00;;;24.40;87.30;;;;;;4975047;28;20102;-43
2022/06/26 09:51:24;;;;;;;4.32;2.08;;;24.40;87.40;;;;;;4962215;28;20042;-44
2022/06/26 09:53:52;;;;;;;3.85;2.10;;;24.40;86.50;;;;;;4977492;28;20046;-43
2022/06/26 09:56:19;;;;;;;4.13;2.20;;;24.50;86.20;;;;;;4960216;28;20058;-43
2022/06/26 09:58:46;;;;;;;4.30;2.28;;;24.50;86.80;;;;;;4977554;28;20046;-43
2022/06/26 10:06:42;;;;;;;4.13;2.53;;;24.70;85.70;;;;;;4974737;28;20073;-43
2022/06/26 10:09:10;;;;;;;3.38;1.90;;;24.70;84.50;;;;;;4972166;28;20178;-43
2022/06/26 10:11:38;;;;;;;4.28;2.00;;;24.70;84.90;;;;;;4951615;28;20058;-43
2022/06/26 10:14:07;;;;;;;3.38;2.08;;;24.80;85.00;;;;;;4976328;28;20046;-44
2022/06/26 10:17:08;;;;;;;4.10;2.20;;;24.90;84.30;;;;;;4965987;28;20431;-44
2022/06/26 10:19:39;;;;;;;4.88;2.08;;;25.10;84.60;;;;;;4971440;28;20047;-44
2022/06/26 10:22:06;;;;;;;4.28;2.10;;;25.10;83.60;;;;;;4975210;28;20046;-44
2022/06/26 10:24:34;;;;;;;5.70;2.72;;;25.10;84.00;;;;;;4974635;28;20118;-44
2022/06/26 10:27:02;;;;;;;6.68;2.20;;;25.10;82.80;;;;;;4968870;28;20116;-44
2022/06/26 10:29:36;;;;;;;6.22;2.47;;;25.10;83.00;;;;;;4989146;28;20700;-45
2022/06/26 10:32:03;;;;;;;4.00;2.03;;;25.10;83.70;;;;;;4990688;28;20035;-44
2022/06/26 10:34:31;;;;;;;3.28;1.73;;;25.20;84.30;;;;;;4957149;28;20050;-44
2022/06/26 10:37:03;;;;;;;5.03;2.00;;;25.20;83.40;;;;;;4955058;28;20117;-43
2022/06/26 10:39:49;;;;;;;3.50;1.90;;;25.20;82.20;;;;;;4976665;28;20043;-44
2022/06/26 10:45:05;;;;;;;3.78;1.73;;;25.10;81.20;;;;;;4970615;28;20480;-44
2022/06/26 10:47:40;;;;;;;5.00;2.08;;;25.00;80.80;;;;;;4968719;28;20039;-44
2022/06/26 10:50:19;;;;;;;4.50;2.10;;;25.10;80.70;;;;;;4969322;28;20046;-44
2022/06/26 10:52:46;;;;;;;4.93;1.67;;;25.10;80.60;;;;;;4975289;28;20058;-44
2022/06/26 10:55:14;;;;;;;4.45;2.00;;;25.10;80.10;;;;;;4975765;28;20065;-44
2022/06/26 10:57:41;;;;;;;4.53;1.90;;;25.00;78.20;;;;;;4988045;28;20175;-45
2022/06/26 11:00:11;;;;;;;5.45;2.08;;;25.00;79.30;;;;;;4966706;28;20082;-44
2022/06/26 11:02:39;;;;;;;3.95;1.90;;;25.10;79.10;;;;;;4974936;28;20093;-44
2022/06/26 11:05:08;;;;;;;5.07;1.80;;;25.20;80.60;;;;;;4976812;28;20105;-44
2022/06/26 11:07:42;;;;;;;6.72;2.17;;;25.30;79.40;;;;;;4974230;28;20046;-45
2022/06/26 11:10:11;;;;;;;4.78;1.90;;;25.50;79.30;;;;;;4970531;28;20093;-45
2022/06/26 11:12:43;;;;;;;3.55;1.85;;;25.60;78.10;;;;;;4969643;28;20332;-44
2022/06/26 11:15:24;;;;;;;5.00;1.90;;;25.70;77.30;;;;;;4973592;28;20114;-43
2022/06/26 11:17:58;;;;;;;;;;;25.70;77.50;;;;;;4972571;28;20499;-43
2022/06/26 11:23:13;;;;;;;3.20;1.70;;;25.70;78.10;;;;;;4973583;28;20209;-44
2022/06/26 11:25:41;;;;;;;9.32;2.53;;;25.70;77.00;;;;;;4957736;28;20472;-44
2022/06/26 11:28:09;;;;;;;7.22;2.55;;;25.60;75.10;;;;;;4954181;28;20388;-45
2022/06/26 11:30:37;;;;;;;5.40;2.13;;;25.50;76.40;;;;;;4966518;28;20058;-43
2022/06/26 11:33:04;;;;;;;5.55;2.25;;;25.60;77.60;;;;;;4969535;28;20550;-44
2022/06/26 11:35:30;;;;;;;4.35;2.70;;;25.70;77.20;;;;;;4953299;28;20117;-44
2022/06/26 11:37:57;;;;;;;4.05;2.28;;;25.70;76.30;;;;;;4965471;28;20128;-44
2022/06/26 11:40:24;;;;;;;6.90;2.35;;;25.50;76.00;;;;;;4986982;28;20081;-45
2022/06/26 11:42:55;;;;;;;6.82;2.25;;;25.40;75.30;;;;;;4991410;28;20081;-42
2022/06/26 11:45:24;;;;;;;5.60;2.30;;;25.20;76.00;;;;;;4979082;28;20050;-43
2022/06/26 11:47:51;;;;;;;6.18;2.28;;;25.30;76.80;;;;;;4964746;28;20406;-43
2022/06/26 11:50:19;;;;;;;6.38;2.33;;;25.30;75.80;;;;;;4981874;28;20412;-44
2022/06/26 11:52:46;;;;;;;4.45;1.92;;;25.30;75.30;;;;;;4979162;28;20121;-43
2022/06/26 11:55:12;;;;;;;7.13;2.53;;;25.40;76.50;;;;;;4971684;28;20046;-43
2022/06/26 11:57:39;;;;;;;4.43;2.10;;;25.40;76.20;;;;;;4971585;28;20050;-44
2022/06/26 12:00:08;;;;;;;3.75;1.88;;;25.50;76.60;;;;;;4964642;28;20066;-43
2022/06/26 12:02:41;;;;;;;7.78;2.40;;;25.60;76.80;;;;;;4975240;28;20057;-43
2022/06/26 12:05:08;;;;;;;6.75;2.30;;;25.70;77.30;;;;;;4972393;28;20046;-44
2022/06/26 12:07:40;;;;;;;8.20;2.70;;;25.70;75.80;;;;;;4959569;28;20125;-44
2022/06/26 12:10:07;;;;;;;7.65;2.50;;;25.70;74.50;;;;;;4967469;28;20082;-44
2022/06/26 12:12:34;;;;;;;4.25;2.15;;;25.70;75.00;;;;;;4973884;28;20050;-44
2022/06/26 12:15:01;;;;;;;5.53;2.60;;;25.80;75.90;;;;;;4953271;28;20430;-43
2022/06/26 12:17:28;;;;;;;6.07;2.38;;;25.90;75.50;;;;;;4951197;28;20101;-44
2022/06/26 12:20:05;;;;;;;6.93;2.67;;;26.00;75.30;;;;;;4949860;28;20070;-42
2022/06/26 12:22:33;;;;;;;4.25;1.95;;;26.10;74.80;;;;;;4973819;28;20098;-44
2022/06/26 12:24:59;;;;;;;5.57;2.53;;;26.10;75.40;;;;;;4989717;28;20046;-44
2022/06/26 12:27:42;;;;;;;5.75;2.40;;;26.10;74.90;;;;;;4988442;28;20399;-44
2022/06/26 12:30:16;;;;;;;5.85;2.33;;;26.10;76.10;;;;;;4971904;28;20049;-44
2022/06/26 12:32:42;;;;;;;6.63;2.72;;;26.00;75.70;;;;;;4958841;28;20065;-44
2022/06/26 12:35:11;;;;;;;4.32;2.20;;;25.90;74.60;;;;;;4965606;28;20101;-44
2022/06/26 12:37:38;;;;;;;3.95;2.20;;;25.80;75.30;;;;;;4968215;28;20074;-43
2022/06/26 12:40:05;;;;;;;7.10;2.40;;;25.80;75.50;;;;;;4948473;28;20074;-44
2022/06/26 12:42:32;;;;;;;7.75;2.40;;;25.80;75.50;;;;;;4963970;28;20049;-45
2022/06/26 12:44:59;;;;;;;5.50;2.22;;;25.70;75.60;;;;;;4973539;28;20078;-43
2022/06/26 12:47:25;;;;;;;5.28;2.38;;;25.60;74.40;;;;;;4970867;28;20070;-44
2022/06/26 12:49:52;;;;;;;5.28;2.47;;;25.60;74.70;;;;;;4971748;28;20105;-43
2022/06/26 12:52:20;;;;;;;4.45;2.28;;;25.40;73.60;;;;;;4957621;28;20125;-43
2022/06/26 12:54:48;;;;;;;4.72;2.00;;;25.40;74.80;;;;;;4977167;28;20078;-44
2022/06/26 12:57:14;;;;;;;3.47;1.92;;;25.30;75.70;;;;;;4946490;28;20149;-44
2022/06/26 12:59:41;;;;;;;5.00;2.33;;;25.40;75.30;;;;;;4940025;28;20181;-44
2022/06/26 13:02:09;;;;;;;5.93;2.35;;;25.20;72.80;;;;;;4968196;28;20058;-43
2022/06/26 13:04:36;;;;;;;5.78;2.40;;;25.10;73.10;;;;;;4969603;28;20086;-43